createdAt,value
2022-11-24T00:09:27.796Z,17.38
2022-11-24T00:19:29.148Z,17.31
2022-11-24T00:29:30.623Z,17.33
2022-11-24T00:39:32.106Z,17.38
2022-11-24T00:49:33.544Z,17.31
2022-11-24T00:59:34.789Z,17.50
2022-11-24T01:09:36.091Z,17.51
2022-11-24T01:19:37.469Z,17.60
2022-11-24T01:29:38.749Z,17.58
2022-11-24T01:39:40.063Z,17.61
2022-11-24T01:49:41.328Z,17.69
2022-11-24T01:59:42.627Z,17.66
2022-11-24T02:09:43.962Z,17.72
2022-11-24T02:19:45.361Z,17.76
2022-11-24T02:29:46.622Z,17.69
2022-11-24T02:39:47.918Z,17.69
2022-11-24T02:49:49.160Z,17.72
2022-11-24T02:59:50.497Z,17.72
2022-11-24T03:09:51.755Z,17.80
2022-11-24T03:19:53.015Z,17.85
2022-11-24T03:29:54.338Z,17.81
2022-11-24T03:39:55.766Z,17.93
2022-11-24T03:49:57.158Z,17.91
2022-11-24T03:59:58.520Z,17.94
2022-11-24T04:09:59.798Z,17.93
2022-11-24T04:20:01.063Z,18.02
2022-11-24T04:30:02.592Z,17.96
2022-11-24T04:40:04.543Z,18.07
2022-11-24T04:50:07.864Z,18.07
2022-11-24T05:00:10.072Z,18.09
2022-11-24T05:10:11.864Z,18.11
2022-11-24T05:20:13.352Z,18.06
2022-11-24T05:30:15.291Z,18.10
2022-11-24T05:40:17.712Z,18.16
2022-11-24T05:50:19.036Z,17.98
2022-11-24T06:10:38.361Z,18.08
2022-11-24T06:20:39.698Z,18.20
2022-11-24T06:30:41.081Z,18.25
2022-11-24T06:40:42.521Z,18.28
2022-11-24T06:50:43.800Z,18.26
2022-11-24T07:00:45.239Z,18.28
2022-11-24T07:10:46.647Z,18.29
2022-11-24T07:20:48.123Z,18.20
2022-11-24T07:30:56.746Z,18.26
2022-11-24T07:41:21.955Z,18.26
2022-11-24T07:51:23.603Z,18.32
2022-11-24T08:01:25.107Z,18.30
2022-11-24T08:11:26.481Z,18.27
2022-11-24T08:21:27.992Z,18.31
2022-11-24T08:31:29.394Z,18.30
2022-11-24T08:41:30.906Z,18.32
2022-11-24T08:51:32.286Z,18.29
2022-11-24T09:01:33.979Z,18.30
2022-11-24T09:11:35.430Z,18.30
2022-11-24T09:21:37.965Z,18.30
2022-11-24T09:31:39.611Z,18.21
2022-11-24T09:41:41.069Z,18.26
2022-11-24T09:51:45.509Z,18.17
2022-11-24T10:01:47.082Z,18.21
2022-11-24T10:11:48.436Z,18.21
2022-11-24T10:21:49.824Z,18.23
2022-11-24T10:31:51.398Z,18.22
2022-11-24T10:41:52.803Z,18.24
2022-11-24T10:51:54.123Z,18.26
2022-11-24T11:12:42.913Z,18.26
2022-11-24T11:22:35.863Z,18.30
2022-11-24T11:43:03.073Z,18.24
2022-11-24T11:53:04.824Z,18.21
2022-11-24T12:03:06.390Z,18.24
2022-11-24T12:13:07.952Z,18.31
2022-11-24T12:23:11.217Z,18.34
2022-11-24T12:33:20.087Z,18.36
2022-11-24T12:43:28.073Z,18.39
2022-11-24T12:53:37.670Z,18.37
2022-11-24T13:03:45.084Z,18.38
2022-11-24T13:35:01.203Z,18.40
2022-11-24T13:45:08.144Z,18.38
2022-11-24T13:55:16.089Z,18.41
2022-11-24T14:05:27.071Z,18.41
2022-11-24T14:15:38.476Z,18.46
2022-11-24T14:36:06.145Z,18.39
2022-11-24T14:46:15.162Z,18.36
2022-11-24T14:56:23.110Z,18.34
2022-11-24T15:06:31.107Z,18.37
2022-11-24T15:16:39.200Z,18.30
2022-11-24T15:26:49.174Z,18.11
2022-11-24T15:36:50.529Z,17.99
2022-11-24T15:46:51.953Z,18.02
2022-11-24T15:56:53.422Z,17.97
2022-11-24T16:06:54.833Z,17.97
2022-11-24T16:16:56.194Z,17.94
2022-11-24T16:26:57.609Z,17.89
2022-11-24T16:36:58.954Z,17.94
2022-11-24T16:47:00.337Z,17.95
2022-11-24T16:57:01.755Z,17.95
2022-11-24T17:07:03.174Z,17.86
2022-11-24T17:17:04.570Z,17.92
2022-11-24T17:27:07.583Z,17.86
2022-11-24T17:37:09.103Z,17.85
2022-11-24T17:47:10.976Z,17.83
2022-11-24T17:57:12.825Z,17.81
2022-11-24T18:07:23.009Z,17.80
2022-11-24T18:17:37.952Z,17.78
2022-11-24T18:27:39.481Z,17.78
2022-11-24T18:37:41.207Z,17.81
2022-11-24T18:47:56.254Z,17.76
2022-11-24T18:57:58.597Z,17.71
2022-11-24T19:39:29.375Z,17.71
2022-11-24T19:49:31.300Z,17.74
2022-11-24T19:59:32.701Z,17.74
2022-11-24T20:09:34.000Z,17.68
2022-11-24T20:19:36.296Z,17.68
2022-11-24T20:29:39.433Z,17.67
2022-11-24T20:39:43.723Z,17.69
2022-11-24T20:49:45.111Z,17.71
2022-11-24T20:59:46.517Z,17.84
2022-11-24T21:09:47.883Z,17.83
2022-11-24T21:19:49.242Z,17.82
2022-11-24T21:29:50.475Z,17.84
2022-11-24T21:39:51.840Z,17.81
2022-11-24T21:49:53.239Z,17.83
2022-11-24T21:59:54.593Z,17.82
2022-11-24T22:09:55.981Z,17.83
2022-11-24T22:19:57.348Z,17.83
2022-11-24T22:29:58.679Z,17.85
2022-11-24T22:40:00.037Z,17.82
2022-11-24T22:50:01.598Z,17.79
2022-11-24T23:00:03.010Z,17.79
2022-11-24T23:10:04.276Z,17.81
2022-11-24T23:20:05.699Z,17.68
2022-11-24T23:30:07.046Z,17.74
2022-11-24T23:40:08.358Z,17.77
2022-11-24T23:50:09.604Z,17.74
